Diksmuide Heliport

EBDI · West-Vlaanderen, Flanders, 比利时

罗盘
风向 的 风向 310° 直升机
风: 8 kt, 3 beaufort
0 ft 5.000 10.000 15.000 20.000
Cloud Cloud Cloud Cloud
SCT 900
Cloud Cloud Cloud Cloud Cloud Cloud
BKN 15.000
Cloud Cloud Cloud Cloud Cloud Cloud
BKN 17.000
METAR EBFN 210955Z 31008KT 9999 SCT009 BKN150 BKN170 15/13 Q1014 GRN BLU TEMPO GRN

METAR Diksmuide Heliport - EBDI

Diksmuide Heliport是,比利时中的直升机场。 该机场位于纬度51,01928和经度2,85821。 本场的ICAO机场代码为EBDI。 机场在Bruxelles FIR中。

该航空气象观测是针对Koksijde Air Base在2024年6月21日 11:55, 当地时间进行的。

机场观察

风向为310°,速度为8 kt。

可见度为10 km 或者更多。

有疏云,零星散落的云朵在900 ft的高度, 碎云在15.000 ft的高度 和 碎云在17.000 ft的高度。 破损或更高的上限为15.000 ft。

温度和风寒是15 °C。 露点为13 °C,相对湿度为88%。 海平面上的气压为1014 hPa (QNH)。

发展趋势

  • 暂时的

    可变方向的风很小或没有。

白天

今天,太阳从05:33升起,在22:07降落。 这适用于Diksmuide Heliport,世界夏令时可能有所不同。 当地时间与世界标准时间之间的时差为+2 小时。 夏令时目前正在进行中。

公司介绍

我们没有关于这个机场的公司信息。

体会

到Vliegles.nl去找飞行课程,跳伞和其他飞行体验。 浏览页面,了解Diksmuide Heliport附近所有可用的活动。 你也可以使用搜索功能来寻找你所在地附近的特定飞行课程、跳伞或其他飞行体验。

乌云

900 ft SCT 疏云,零星散落的云朵
15.000 ft BKN 碎云
17.000 ft BKN 碎云

温度 & 天气

温度 15 °C
露点 13 °C
相对湿度 88%
Kp-index 0 (0-9)

白天

日出
05:34
中午
13:51
日落
22:08 (9:39)

小工具

你想在你的网站上有一个关于Diksmuide Heliport的当前航空天气(METAR)的小部件吗?

显示HTML代码
报告变更